Aeroporto :
LOGIN :

Iscrizione | Disclaimer

   EN    FR    IT 

 










Sommario :    VFR   VFR Marginale   IFR   IFR Intensivo   IFR Molto Intensivo
Visibilità : 
Base nubi : 
>= 8 km
>= 3000ft
5 / 8 km
1000 / 3000 ft
1500m / 5 km
500 / 1000 ft
800 / 1500m
200 / 500 ft
< 800m
< 200 ft
Simboli :   Temporali  Nebbia  Neve Forte  Precipitazioni Forti  Vento > 20 kt
SIGMETs :   Varie  Temporali  Ghiacco  Turbolenza  Onda orograficha  Ceneri Vulcaniche






- Altitudine del aeroporto : 357 ft
- Codice IATA : TUF


LFOT - Tours

ULTIMO METAR :
  • 171900Z AUTO 25006KT CAVOK 06/04 Q1025 NOSIG

METARs OBSOLETI :
  • 171830Z AUTO 24008KT 9999 FEW028 SCT150 07/04 Q1025 NOSIG
  • 171800Z AUTO 24007KT 9999 FEW043 BKN150 07/03 Q1025 NOSIG
  • 171730Z AUTO 25010KT CAVOK 07/03 Q1024 NOSIG
  • 171700Z AUTO 25009KT 9999 FEW043 08/03 Q1024 TEMPO 24020G35KT 4000 SHRA SCT025CB BKN030

TAF TAF LFOT
Valido dal 17 a 18 ore il 18 a 18 ore UTC


171700Z 1718/1818 24008KT 9999 SCT030
BECMG 1718/1721 CAVOK
BECMG 1812/1815 06005KT
TEMPO 1814/1816 FEW030



MetMap, La meteo Aeronautica in un colpo d'occhio ! - Copyright ORBIFLY Dicembre 2007 - Disclaimer

ORBIFLY MET'MAP TEAM :

Programmazione e sviluppo : Alexandra Zaïnal
Concezione : Baudouin d'Aumeries
Aiuto per la programmazione : Marc-Olivier Méhu
Supporto tecnico e logistico : Manuel Goepfert
Aiuto per la traduzione : Arnaldo La Scala

Contatto : metmap@orbifly.com




FONTI E CREDITI :

   NOAA